sensor_id;sensor_type;location;lat;lon;timestamp;temperature;humidity
26821;DHT22;37186;51.394;5.454;2022-11-15T00:00:44;9.60;82.50
26821;DHT22;37186;51.394;5.454;2022-11-15T00:03:45;9.60;82.50
26821;DHT22;37186;51.394;5.454;2022-11-15T00:06:46;9.60;82.50
26821;DHT22;37186;51.394;5.454;2022-11-15T00:09:46;9.70;82.50
26821;DHT22;37186;51.394;5.454;2022-11-15T00:12:47;9.70;82.60
26821;DHT22;37186;51.394;5.454;2022-11-15T00:15:47;9.70;82.60
26821;DHT22;37186;51.394;5.454;2022-11-15T00:18:48;9.70;82.50
26821;DHT22;37186;51.394;5.454;2022-11-15T00:21:49;9.70;82.50
26821;DHT22;37186;51.394;5.454;2022-11-15T00:24:49;9.80;82.70
26821;DHT22;37186;51.394;5.454;2022-11-15T00:27:50;9.80;82.70
26821;DHT22;37186;51.394;5.454;2022-11-15T00:30:52;9.80;82.60
26821;DHT22;37186;51.394;5.454;2022-11-15T00:33:52;9.80;82.60
26821;DHT22;37186;51.394;5.454;2022-11-15T00:36:53;9.80;82.70
26821;DHT22;37186;51.394;5.454;2022-11-15T00:39:53;9.80;82.60
26821;DHT22;37186;51.394;5.454;2022-11-15T00:42:54;9.90;82.70
26821;DHT22;37186;51.394;5.454;2022-11-15T00:45:55;9.90;82.70
26821;DHT22;37186;51.394;5.454;2022-11-15T00:48:55;9.90;82.70
26821;DHT22;37186;51.394;5.454;2022-11-15T00:51:56;9.90;82.70
26821;DHT22;37186;51.394;5.454;2022-11-15T00:54:56;9.90;82.70
26821;DHT22;37186;51.394;5.454;2022-11-15T00:57:57;10.00;82.70
26821;DHT22;37186;51.394;5.454;2022-11-15T01:01:06;10.00;82.70
26821;DHT22;37186;51.394;5.454;2022-11-15T01:04:07;10.00;83.60
26821;DHT22;37186;51.394;5.454;2022-11-15T01:07:07;10.00;82.70
26821;DHT22;37186;51.394;5.454;2022-11-15T01:10:08;10.00;82.80
26821;DHT22;37186;51.394;5.454;2022-11-15T01:13:09;10.10;82.80
26821;DHT22;37186;51.394;5.454;2022-11-15T01:16:12;10.10;82.80
26821;DHT22;37186;51.394;5.454;2022-11-15T01:19:13;10.10;82.80
26821;DHT22;37186;51.394;5.454;2022-11-15T01:22:14;10.10;82.90
26821;DHT22;37186;51.394;5.454;2022-11-15T01:25:14;10.10;82.80
26821;DHT22;37186;51.394;5.454;2022-11-15T01:28:15;10.10;82.90
26821;DHT22;37186;51.394;5.454;2022-11-15T01:31:17;10.20;83.00
26821;DHT22;37186;51.394;5.454;2022-11-15T01:34:18;10.20;83.00
26821;DHT22;37186;51.394;5.454;2022-11-15T01:37:19;10.20;83.00
26821;DHT22;37186;51.394;5.454;2022-11-15T01:40:19;10.20;83.80
26821;DHT22;37186;51.394;5.454;2022-11-15T01:43:22;10.20;83.00
26821;DHT22;37186;51.394;5.454;2022-11-15T01:46:30;10.30;83.10
26821;DHT22;37186;51.394;5.454;2022-11-15T01:49:33;10.30;83.10
26821;DHT22;37186;51.394;5.454;2022-11-15T01:52:36;10.30;83.20
26821;DHT22;37186;51.394;5.454;2022-11-15T01:55:37;10.30;83.20
26821;DHT22;37186;51.394;5.454;2022-11-15T01:58:39;10.40;83.20
26821;DHT22;37186;51.394;5.454;2022-11-15T02:01:40;10.40;83.30
26821;DHT22;37186;51.394;5.454;2022-11-15T02:04:50;10.40;83.30
26821;DHT22;37186;51.394;5.454;2022-11-15T02:07:51;10.40;83.30
26821;DHT22;37186;51.394;5.454;2022-11-15T02:10:51;10.50;83.40
26821;DHT22;37186;51.394;5.454;2022-11-15T02:13:52;10.50;83.30
26821;DHT22;37186;51.394;5.454;2022-11-15T02:17:29;10.50;83.40
26821;DHT22;37186;51.394;5.454;2022-11-15T02:20:47;10.50;83.40
26821;DHT22;37186;51.394;5.454;2022-11-15T02:31:34;10.60;83.50
26821;DHT22;37186;51.394;5.454;2022-11-15T02:34:57;10.70;83.50
26821;DHT22;37186;51.394;5.454;2022-11-15T02:38:12;10.70;83.50
26821;DHT22;37186;51.394;5.454;2022-11-15T02:41:25;10.70;83.50
26821;DHT22;37186;51.394;5.454;2022-11-15T02:44:34;10.70;83.50
26821;DHT22;37186;51.394;5.454;2022-11-15T02:47:43;10.80;83.60
26821;DHT22;37186;51.394;5.454;2022-11-15T02:50:44;10.80;83.60
26821;DHT22;37186;51.394;5.454;2022-11-15T02:53:45;10.80;83.60
26821;DHT22;37186;51.394;5.454;2022-11-15T02:56:46;10.90;83.70
26821;DHT22;37186;51.394;5.454;2022-11-15T03:00:08;10.90;83.60
26821;DHT22;37186;51.394;5.454;2022-11-15T03:06:48;10.90;83.60
26821;DHT22;37186;51.394;5.454;2022-11-15T03:10:06;11.00;83.70
26821;DHT22;37186;51.394;5.454;2022-11-15T03:14:13;11.00;83.70
26821;DHT22;37186;51.394;5.454;2022-11-15T03:17:02;11.00;83.70
26821;DHT22;37186;51.394;5.454;2022-11-15T03:20:08;11.10;83.70
26821;DHT22;37186;51.394;5.454;2022-11-15T03:23:10;11.10;83.70
26821;DHT22;37186;51.394;5.454;2022-11-15T03:26:12;11.10;83.80
26821;DHT22;37186;51.394;5.454;2022-11-15T03:29:17;11.10;83.70
26821;DHT22;37186;51.394;5.454;2022-11-15T03:32:24;11.10;83.80
26821;DHT22;37186;51.394;5.454;2022-11-15T03:35:28;11.20;83.80
26821;DHT22;37186;51.394;5.454;2022-11-15T03:38:31;11.20;83.80
26821;DHT22;37186;51.394;5.454;2022-11-15T03:41:43;11.20;83.80
26821;DHT22;37186;51.394;5.454;2022-11-15T03:44:54;11.20;83.80
26821;DHT22;37186;51.394;5.454;2022-11-15T03:48:16;11.20;83.80
26821;DHT22;37186;51.394;5.454;2022-11-15T03:51:19;11.30;83.80
26821;DHT22;37186;51.394;5.454;2022-11-15T03:54:19;11.30;83.80
26821;DHT22;37186;51.394;5.454;2022-11-15T03:57:20;11.30;83.80
26821;DHT22;37186;51.394;5.454;2022-11-15T04:00:21;11.30;83.80
26821;DHT22;37186;51.394;5.454;2022-11-15T04:03:21;11.40;83.90
26821;DHT22;37186;51.394;5.454;2022-11-15T04:06:22;11.40;83.90
26821;DHT22;37186;51.394;5.454;2022-11-15T04:09:23;11.40;83.90
26821;DHT22;37186;51.394;5.454;2022-11-15T04:12:23;11.40;83.90
26821;DHT22;37186;51.394;5.454;2022-11-15T04:15:33;11.40;83.90
26821;DHT22;37186;51.394;5.454;2022-11-15T04:18:33;11.50;84.00
26821;DHT22;37186;51.394;5.454;2022-11-15T04:21:34;11.50;84.00
26821;DHT22;37186;51.394;5.454;2022-11-15T04:24:53;11.50;84.00
26821;DHT22;37186;51.394;5.454;2022-11-15T04:27:53;11.50;84.00
26821;DHT22;37186;51.394;5.454;2022-11-15T04:30:54;11.50;84.00
26821;DHT22;37186;51.394;5.454;2022-11-15T04:33:55;11.50;84.00
26821;DHT22;37186;51.394;5.454;2022-11-15T04:36:55;11.50;83.90
26821;DHT22;37186;51.394;5.454;2022-11-15T04:40:15;11.50;84.00
26821;DHT22;37186;51.394;5.454;2022-11-15T04:43:16;11.60;84.00
26821;DHT22;37186;51.394;5.454;2022-11-15T04:46:16;11.60;84.70
26821;DHT22;37186;51.394;5.454;2022-11-15T04:49:17;11.60;84.00
26821;DHT22;37186;51.394;5.454;2022-11-15T04:52:17;11.60;84.00
26821;DHT22;37186;51.394;5.454;2022-11-15T04:55:18;11.60;84.00
26821;DHT22;37186;51.394;5.454;2022-11-15T04:58:19;11.60;84.00
26821;DHT22;37186;51.394;5.454;2022-11-15T05:01:19;11.60;84.00
26821;DHT22;37186;51.394;5.454;2022-11-15T05:04:20;11.60;84.00
26821;DHT22;37186;51.394;5.454;2022-11-15T05:07:20;11.70;84.10
26821;DHT22;37186;51.394;5.454;2022-11-15T05:10:21;11.70;84.10
26821;DHT22;37186;51.394;5.454;2022-11-15T05:13:22;11.70;84.00
26821;DHT22;37186;51.394;5.454;2022-11-15T05:16:22;11.70;84.00
26821;DHT22;37186;51.394;5.454;2022-11-15T05:19:23;11.70;84.00
26821;DHT22;37186;51.394;5.454;2022-11-15T05:22:23;11.70;84.10
26821;DHT22;37186;51.394;5.454;2022-11-15T05:25:24;11.70;84.10
26821;DHT22;37186;51.394;5.454;2022-11-15T05:28:25;11.70;84.10
26821;DHT22;37186;51.394;5.454;2022-11-15T05:31:26;11.70;84.10
26821;DHT22;37186;51.394;5.454;2022-11-15T05:34:27;11.70;84.10
26821;DHT22;37186;51.394;5.454;2022-11-15T05:37:29;11.80;84.20
26821;DHT22;37186;51.394;5.454;2022-11-15T05:40:30;11.80;84.20
26821;DHT22;37186;51.394;5.454;2022-11-15T05:43:33;11.80;84.20
26821;DHT22;37186;51.394;5.454;2022-11-15T05:46:36;11.80;84.20
26821;DHT22;37186;51.394;5.454;2022-11-15T05:49:39;11.80;84.20
26821;DHT22;37186;51.394;5.454;2022-11-15T05:52:41;11.80;84.20
26821;DHT22;37186;51.394;5.454;2022-11-15T05:55:42;11.80;84.20
26821;DHT22;37186;51.394;5.454;2022-11-15T05:58:43;11.80;84.20
26821;DHT22;37186;51.394;5.454;2022-11-15T06:01:43;11.90;84.20
26821;DHT22;37186;51.394;5.454;2022-11-15T06:04:44;11.90;84.20
26821;DHT22;37186;51.394;5.454;2022-11-15T06:07:44;11.90;84.20
26821;DHT22;37186;51.394;5.454;2022-11-15T06:10:45;11.90;84.20
26821;DHT22;37186;51.394;5.454;2022-11-15T06:13:46;11.90;84.20
26821;DHT22;37186;51.394;5.454;2022-11-15T06:16:46;11.90;84.20
26821;DHT22;37186;51.394;5.454;2022-11-15T06:19:47;11.90;84.30
26821;DHT22;37186;51.394;5.454;2022-11-15T06:22:47;11.90;84.20
26821;DHT22;37186;51.394;5.454;2022-11-15T06:25:48;11.90;84.30
26821;DHT22;37186;51.394;5.454;2022-11-15T06:28:48;11.90;84.20
26821;DHT22;37186;51.394;5.454;2022-11-15T06:31:49;12.00;84.30
26821;DHT22;37186;51.394;5.454;2022-11-15T06:34:49;12.00;84.30
26821;DHT22;37186;51.394;5.454;2022-11-15T06:37:50;11.90;84.20
26821;DHT22;37186;51.394;5.454;2022-11-15T06:40:50;11.90;84.20
26821;DHT22;37186;51.394;5.454;2022-11-15T06:43:51;12.00;84.30
26821;DHT22;37186;51.394;5.454;2022-11-15T06:46:51;12.00;84.30
26821;DHT22;37186;51.394;5.454;2022-11-15T06:49:52;12.00;84.30
26821;DHT22;37186;51.394;5.454;2022-11-15T06:52:52;12.00;84.30
26821;DHT22;37186;51.394;5.454;2022-11-15T06:55:53;12.00;84.30
26821;DHT22;37186;51.394;5.454;2022-11-15T06:58:58;12.00;84.20
26821;DHT22;37186;51.394;5.454;2022-11-15T07:01:58;12.00;84.30
26821;DHT22;37186;51.394;5.454;2022-11-15T07:04:59;12.00;84.20
26821;DHT22;37186;51.394;5.454;2022-11-15T07:08:00;12.00;84.20
26821;DHT22;37186;51.394;5.454;2022-11-15T07:11:07;12.00;84.20
26821;DHT22;37186;51.394;5.454;2022-11-15T07:14:08;12.00;84.20
26821;DHT22;37186;51.394;5.454;2022-11-15T07:17:08;12.00;84.20
26821;DHT22;37186;51.394;5.454;2022-11-15T07:20:09;12.00;84.20
26821;DHT22;37186;51.394;5.454;2022-11-15T07:23:10;12.00;84.20
26821;DHT22;37186;51.394;5.454;2022-11-15T07:26:10;12.00;84.20
26821;DHT22;37186;51.394;5.454;2022-11-15T07:29:11;12.00;84.20
26821;DHT22;37186;51.394;5.454;2022-11-15T07:32:11;12.00;84.30
26821;DHT22;37186;51.394;5.454;2022-11-15T07:35:12;12.00;84.30
26821;DHT22;37186;51.394;5.454;2022-11-15T07:38:12;12.00;84.20
26821;DHT22;37186;51.394;5.454;2022-11-15T07:41:15;12.00;84.20
26821;DHT22;37186;51.394;5.454;2022-11-15T07:44:15;12.00;84.30
26821;DHT22;37186;51.394;5.454;2022-11-15T07:47:16;12.00;84.30
26821;DHT22;37186;51.394;5.454;2022-11-15T07:50:16;12.00;84.20
26821;DHT22;37186;51.394;5.454;2022-11-15T07:53:17;12.00;84.20
26821;DHT22;37186;51.394;5.454;2022-11-15T07:56:18;12.00;84.20
26821;DHT22;37186;51.394;5.454;2022-11-15T07:59:18;12.00;84.20
26821;DHT22;37186;51.394;5.454;2022-11-15T08:02:19;12.00;84.20
26821;DHT22;37186;51.394;5.454;2022-11-15T08:05:20;12.00;84.20
26821;DHT22;37186;51.394;5.454;2022-11-15T08:08:20;12.00;84.20
26821;DHT22;37186;51.394;5.454;2022-11-15T08:11:21;12.00;84.20
26821;DHT22;37186;51.394;5.454;2022-11-15T08:14:21;12.00;84.20
26821;DHT22;37186;51.394;5.454;2022-11-15T08:17:24;12.00;84.20
26821;DHT22;37186;51.394;5.454;2022-11-15T08:20:26;12.00;84.20
26821;DHT22;37186;51.394;5.454;2022-11-15T08:23:30;12.00;84.20
26821;DHT22;37186;51.394;5.454;2022-11-15T08:26:31;12.00;84.20
26821;DHT22;37186;51.394;5.454;2022-11-15T08:29:31;12.00;84.30
26821;DHT22;37186;51.394;5.454;2022-11-15T08:32:32;11.90;84.20
26821;DHT22;37186;51.394;5.454;2022-11-15T08:35:32;11.90;84.20
26821;DHT22;37186;51.394;5.454;2022-11-15T08:38:33;11.90;84.20
26821;DHT22;37186;51.394;5.454;2022-11-15T08:41:36;11.90;84.20
26821;DHT22;37186;51.394;5.454;2022-11-15T08:44:37;11.90;84.20
26821;DHT22;37186;51.394;5.454;2022-11-15T08:47:37;11.90;84.20
26821;DHT22;37186;51.394;5.454;2022-11-15T08:50:38;11.90;84.30
26821;DHT22;37186;51.394;5.454;2022-11-15T08:53:38;11.90;84.30
26821;DHT22;37186;51.394;5.454;2022-11-15T08:56:39;11.90;84.30
26821;DHT22;37186;51.394;5.454;2022-11-15T08:59:39;11.90;84.30
26821;DHT22;37186;51.394;5.454;2022-11-15T09:02:40;12.00;84.40
26821;DHT22;37186;51.394;5.454;2022-11-15T09:05:41;11.90;84.30
26821;DHT22;37186;51.394;5.454;2022-11-15T09:08:41;12.00;84.50
26821;DHT22;37186;51.394;5.454;2022-11-15T09:11:42;12.00;84.40
26821;DHT22;37186;51.394;5.454;2022-11-15T09:14:42;12.00;84.50
26821;DHT22;37186;51.394;5.454;2022-11-15T09:17:43;12.00;84.50
26821;DHT22;37186;51.394;5.454;2022-11-15T09:20:43;12.00;84.50
26821;DHT22;37186;51.394;5.454;2022-11-15T09:23:44;12.00;84.50
26821;DHT22;37186;51.394;5.454;2022-11-15T09:26:44;12.00;84.50
26821;DHT22;37186;51.394;5.454;2022-11-15T09:29:45;12.00;84.60
26821;DHT22;37186;51.394;5.454;2022-11-15T09:32:45;12.00;84.70
26821;DHT22;37186;51.394;5.454;2022-11-15T09:35:46;12.00;84.70
26821;DHT22;37186;51.394;5.454;2022-11-15T09:38:47;12.00;84.70
26821;DHT22;37186;51.394;5.454;2022-11-15T09:42:20;12.00;84.90
26821;DHT22;37186;51.394;5.454;2022-11-15T09:48:52;12.00;84.70
26821;DHT22;37186;51.394;5.454;2022-11-15T09:51:54;12.00;84.70
26821;DHT22;37186;51.394;5.454;2022-11-15T09:54:55;12.00;84.70
26821;DHT22;37186;51.394;5.454;2022-11-15T10:04:45;12.10;84.70
26821;DHT22;37186;51.394;5.454;2022-11-15T10:11:25;12.10;84.70
26821;DHT22;37186;51.394;5.454;2022-11-15T10:14:28;12.10;84.70
26821;DHT22;37186;51.394;5.454;2022-11-15T10:17:59;12.10;84.70
26821;DHT22;37186;51.394;5.454;2022-11-15T10:21:24;12.10;84.70
26821;DHT22;37186;51.394;5.454;2022-11-15T10:24:28;12.10;84.70
26821;DHT22;37186;51.394;5.454;2022-11-15T10:27:32;12.10;84.70
26821;DHT22;37186;51.394;5.454;2022-11-15T10:30:38;12.10;84.60
26821;DHT22;37186;51.394;5.454;2022-11-15T10:33:39;12.10;84.60
26821;DHT22;37186;51.394;5.454;2022-11-15T10:36:44;12.10;84.60
26821;DHT22;37186;51.394;5.454;2022-11-15T10:40:06;12.10;84.60
26821;DHT22;37186;51.394;5.454;2022-11-15T10:46:21;12.20;84.60
26821;DHT22;37186;51.394;5.454;2022-11-15T10:49:27;12.20;84.60
26821;DHT22;37186;51.394;5.454;2022-11-15T10:52:34;12.20;84.70
26821;DHT22;37186;51.394;5.454;2022-11-15T10:55:35;12.20;84.50
26821;DHT22;37186;51.394;5.454;2022-11-15T10:58:53;12.20;84.50
26821;DHT22;37186;51.394;5.454;2022-11-15T11:01:55;12.20;84.50
26821;DHT22;37186;51.394;5.454;2022-11-15T11:04:55;12.20;84.60
26821;DHT22;37186;51.394;5.454;2022-11-15T11:08:01;12.20;84.70
26821;DHT22;37186;51.394;5.454;2022-11-15T11:11:03;12.20;84.70
26821;DHT22;37186;51.394;5.454;2022-11-15T11:14:12;12.20;84.70
26821;DHT22;37186;51.394;5.454;2022-11-15T11:17:24;12.30;84.70
26821;DHT22;37186;51.394;5.454;2022-11-15T11:20:40;12.30;84.70
26821;DHT22;37186;51.394;5.454;2022-11-15T11:30:23;12.30;84.70
26821;DHT22;37186;51.394;5.454;2022-11-15T11:36:52;12.40;84.80
26821;DHT22;37186;51.394;5.454;2022-11-15T11:43:28;12.40;84.90
26821;DHT22;37186;51.394;5.454;2022-11-15T11:50:02;12.50;84.90
26821;DHT22;37186;51.394;5.454;2022-11-15T11:53:35;12.50;84.90
26821;DHT22;37186;51.394;5.454;2022-11-15T11:56:42;12.50;85.10
26821;DHT22;37186;51.394;5.454;2022-11-15T12:05:58;12.60;85.00
26821;DHT22;37186;51.394;5.454;2022-11-15T12:12:23;12.70;85.00
26821;DHT22;37186;51.394;5.454;2022-11-15T12:15:27;12.70;84.90
26821;DHT22;37186;51.394;5.454;2022-11-15T12:18:30;12.70;84.90
26821;DHT22;37186;51.394;5.454;2022-11-15T12:22:00;12.80;85.00
26821;DHT22;37186;51.394;5.454;2022-11-15T12:25:13;12.80;85.00
26821;DHT22;37186;51.394;5.454;2022-11-15T12:34:40;12.90;84.90
26821;DHT22;37186;51.394;5.454;2022-11-15T12:41:12;12.90;84.80
26821;DHT22;37186;51.394;5.454;2022-11-15T12:47:34;13.00;84.70
26821;DHT22;37186;51.394;5.454;2022-11-15T12:53:53;13.00;84.70
26821;DHT22;37186;51.394;5.454;2022-11-15T13:03:20;13.10;84.80
26821;DHT22;37186;51.394;5.454;2022-11-15T13:15:59;13.10;84.70
26821;DHT22;37186;51.394;5.454;2022-11-15T13:19:01;13.10;84.70
26821;DHT22;37186;51.394;5.454;2022-11-15T13:22:06;13.10;84.70
26821;DHT22;37186;51.394;5.454;2022-11-15T13:28:47;13.10;84.70
26821;DHT22;37186;51.394;5.454;2022-11-15T13:31:49;13.20;84.70
26821;DHT22;37186;51.394;5.454;2022-11-15T13:34:51;13.20;84.70
26821;DHT22;37186;51.394;5.454;2022-11-15T13:37:54;13.20;84.60
26821;DHT22;37186;51.394;5.454;2022-11-15T13:40:56;13.20;84.70
26821;DHT22;37186;51.394;5.454;2022-11-15T13:43:58;13.20;84.70
26821;DHT22;37186;51.394;5.454;2022-11-15T13:47:13;13.20;84.70
26821;DHT22;37186;51.394;5.454;2022-11-15T13:50:14;13.20;84.70
26821;DHT22;37186;51.394;5.454;2022-11-15T13:53:15;13.20;84.60
26821;DHT22;37186;51.394;5.454;2022-11-15T13:56:17;13.30;84.60
26821;DHT22;37186;51.394;5.454;2022-11-15T13:59:28;13.30;84.60
26821;DHT22;37186;51.394;5.454;2022-11-15T14:02:34;13.30;84.60
26821;DHT22;37186;51.394;5.454;2022-11-15T14:05:35;13.30;84.60
26821;DHT22;37186;51.394;5.454;2022-11-15T14:08:36;13.30;84.50
26821;DHT22;37186;51.394;5.454;2022-11-15T14:11:37;13.30;84.50
26821;DHT22;37186;51.394;5.454;2022-11-15T14:14:45;13.30;85.30
26821;DHT22;37186;51.394;5.454;2022-11-15T14:17:46;13.30;84.50
26821;DHT22;37186;51.394;5.454;2022-11-15T14:20:46;13.30;84.50
26821;DHT22;37186;51.394;5.454;2022-11-15T14:23:47;13.30;84.50
26821;DHT22;37186;51.394;5.454;2022-11-15T14:26:49;13.30;84.50
26821;DHT22;37186;51.394;5.454;2022-11-15T14:29:50;13.30;84.50
26821;DHT22;37186;51.394;5.454;2022-11-15T14:32:50;13.30;84.40
26821;DHT22;37186;51.394;5.454;2022-11-15T14:35:52;13.30;84.40
26821;DHT22;37186;51.394;5.454;2022-11-15T14:38:53;13.30;84.40
26821;DHT22;37186;51.394;5.454;2022-11-15T14:41:54;13.30;84.40
26821;DHT22;37186;51.394;5.454;2022-11-15T14:44:55;13.30;84.40
26821;DHT22;37186;51.394;5.454;2022-11-15T14:47:55;13.30;84.40
26821;DHT22;37186;51.394;5.454;2022-11-15T14:50:56;13.30;84.40
26821;DHT22;37186;51.394;5.454;2022-11-15T14:53:57;13.30;84.40
26821;DHT22;37186;51.394;5.454;2022-11-15T14:56:57;13.30;84.40
26821;DHT22;37186;51.394;5.454;2022-11-15T14:59:58;13.30;84.40
26821;DHT22;37186;51.394;5.454;2022-11-15T15:02:59;13.30;84.40
26821;DHT22;37186;51.394;5.454;2022-11-15T15:05:59;13.30;84.40
26821;DHT22;37186;51.394;5.454;2022-11-15T15:09:00;13.30;84.40
26821;DHT22;37186;51.394;5.454;2022-11-15T15:12:00;13.30;85.20
26821;DHT22;37186;51.394;5.454;2022-11-15T15:15:01;13.30;84.40
26821;DHT22;37186;51.394;5.454;2022-11-15T15:18:03;13.30;84.40
26821;DHT22;37186;51.394;5.454;2022-11-15T15:21:22;13.30;84.40
26821;DHT22;37186;51.394;5.454;2022-11-15T15:24:22;13.30;84.40
26821;DHT22;37186;51.394;5.454;2022-11-15T15:27:23;13.30;84.40
26821;DHT22;37186;51.394;5.454;2022-11-15T15:30:25;13.30;84.30
26821;DHT22;37186;51.394;5.454;2022-11-15T15:33:25;13.30;84.40
26821;DHT22;37186;51.394;5.454;2022-11-15T15:36:26;13.30;84.40
26821;DHT22;37186;51.394;5.454;2022-11-15T15:39:27;13.30;84.30
26821;DHT22;37186;51.394;5.454;2022-11-15T15:42:27;13.30;84.40
26821;DHT22;37186;51.394;5.454;2022-11-15T15:45:28;13.30;84.40
26821;DHT22;37186;51.394;5.454;2022-11-15T15:48:29;13.30;84.40
26821;DHT22;37186;51.394;5.454;2022-11-15T15:51:30;13.30;84.30
26821;DHT22;37186;51.394;5.454;2022-11-15T15:54:30;13.30;84.40
26821;DHT22;37186;51.394;5.454;2022-11-15T15:57:31;13.30;84.40
26821;DHT22;37186;51.394;5.454;2022-11-15T16:00:31;13.20;85.00
26821;DHT22;37186;51.394;5.454;2022-11-15T16:03:33;13.30;84.40
26821;DHT22;37186;51.394;5.454;2022-11-15T16:06:38;13.20;84.40
26821;DHT22;37186;51.394;5.454;2022-11-15T16:09:39;13.30;84.40
26821;DHT22;37186;51.394;5.454;2022-11-15T16:12:58;13.30;84.40
26821;DHT22;37186;51.394;5.454;2022-11-15T16:16:00;13.30;84.40
26821;DHT22;37186;51.394;5.454;2022-11-15T16:19:00;13.30;84.40
26821;DHT22;37186;51.394;5.454;2022-11-15T16:22:01;13.20;84.30
26821;DHT22;37186;51.394;5.454;2022-11-15T16:25:02;13.30;84.40
26821;DHT22;37186;51.394;5.454;2022-11-15T16:28:02;13.20;84.30
26821;DHT22;37186;51.394;5.454;2022-11-15T16:31:09;13.20;84.40
26821;DHT22;37186;51.394;5.454;2022-11-15T16:34:10;13.30;84.40
26821;DHT22;37186;51.394;5.454;2022-11-15T16:37:23;13.20;84.40
26821;DHT22;37186;51.394;5.454;2022-11-15T16:40:30;13.20;84.40
26821;DHT22;37186;51.394;5.454;2022-11-15T16:43:31;13.20;84.40
26821;DHT22;37186;51.394;5.454;2022-11-15T16:46:31;13.20;84.30
26821;DHT22;37186;51.394;5.454;2022-11-15T16:49:32;13.20;84.40
26821;DHT22;37186;51.394;5.454;2022-11-15T16:52:32;13.20;84.40
26821;DHT22;37186;51.394;5.454;2022-11-15T16:55:33;13.20;84.40
26821;DHT22;37186;51.394;5.454;2022-11-15T16:58:36;13.20;84.40
26821;DHT22;37186;51.394;5.454;2022-11-15T17:01:37;13.20;84.40
26821;DHT22;37186;51.394;5.454;2022-11-15T17:04:46;13.20;84.40
26821;DHT22;37186;51.394;5.454;2022-11-15T17:07:48;13.20;84.40
26821;DHT22;37186;51.394;5.454;2022-11-15T17:10:49;13.20;84.40
26821;DHT22;37186;51.394;5.454;2022-11-15T17:13:50;13.20;84.40
26821;DHT22;37186;51.394;5.454;2022-11-15T17:16:50;13.20;84.40
26821;DHT22;37186;51.394;5.454;2022-11-15T17:19:52;13.20;84.40
26821;DHT22;37186;51.394;5.454;2022-11-15T17:22:53;13.20;84.40
26821;DHT22;37186;51.394;5.454;2022-11-15T17:26:00;13.20;84.40
26821;DHT22;37186;51.394;5.454;2022-11-15T17:29:04;13.20;84.40
26821;DHT22;37186;51.394;5.454;2022-11-15T17:32:07;13.10;84.40
26821;DHT22;37186;51.394;5.454;2022-11-15T17:35:10;13.20;84.40
26821;DHT22;37186;51.394;5.454;2022-11-15T17:38:11;13.20;84.40
26821;DHT22;37186;51.394;5.454;2022-11-15T17:41:13;13.10;84.40
26821;DHT22;37186;51.394;5.454;2022-11-15T17:44:14;13.20;84.40
26821;DHT22;37186;51.394;5.454;2022-11-15T17:47:14;13.20;84.50
26821;DHT22;37186;51.394;5.454;2022-11-15T17:50:15;13.10;84.40
26821;DHT22;37186;51.394;5.454;2022-11-15T17:53:17;13.10;84.40
26821;DHT22;37186;51.394;5.454;2022-11-15T17:56:22;13.10;84.40
26821;DHT22;37186;51.394;5.454;2022-11-15T17:59:22;13.10;84.40
26821;DHT22;37186;51.394;5.454;2022-11-15T18:02:23;13.10;84.50
26821;DHT22;37186;51.394;5.454;2022-11-15T18:05:23;13.10;84.50
26821;DHT22;37186;51.394;5.454;2022-11-15T18:08:24;13.10;84.50
26821;DHT22;37186;51.394;5.454;2022-11-15T18:11:33;13.00;84.40
26821;DHT22;37186;51.394;5.454;2022-11-15T18:14:34;13.10;84.50
26821;DHT22;37186;51.394;5.454;2022-11-15T18:17:34;13.10;84.50
26821;DHT22;37186;51.394;5.454;2022-11-15T18:20:36;13.10;84.50
26821;DHT22;37186;51.394;5.454;2022-11-15T18:23:37;13.10;84.50
26821;DHT22;37186;51.394;5.454;2022-11-15T18:26:38;13.00;84.50
26821;DHT22;37186;51.394;5.454;2022-11-15T18:29:38;13.10;84.60
26821;DHT22;37186;51.394;5.454;2022-11-15T18:32:39;13.10;84.60
26821;DHT22;37186;51.394;5.454;2022-11-15T18:35:39;13.10;84.60
26821;DHT22;37186;51.394;5.454;2022-11-15T18:38:40;13.10;84.50
26821;DHT22;37186;51.394;5.454;2022-11-15T18:41:42;13.00;84.50
26821;DHT22;37186;51.394;5.454;2022-11-15T18:44:43;13.00;84.60
26821;DHT22;37186;51.394;5.454;2022-11-15T18:47:43;13.00;84.60
26821;DHT22;37186;51.394;5.454;2022-11-15T18:50:44;13.00;84.60
26821;DHT22;37186;51.394;5.454;2022-11-15T18:53:45;13.00;84.60
26821;DHT22;37186;51.394;5.454;2022-11-15T18:56:45;13.00;84.60
26821;DHT22;37186;51.394;5.454;2022-11-15T18:59:46;13.00;84.60
26821;DHT22;37186;51.394;5.454;2022-11-15T19:02:47;13.00;84.60
26821;DHT22;37186;51.394;5.454;2022-11-15T19:05:47;13.00;84.60
26821;DHT22;37186;51.394;5.454;2022-11-15T19:08:50;13.00;84.70
26821;DHT22;37186;51.394;5.454;2022-11-15T19:11:52;13.00;84.70
26821;DHT22;37186;51.394;5.454;2022-11-15T19:14:52;13.00;84.70
26821;DHT22;37186;51.394;5.454;2022-11-15T19:17:53;13.10;84.80
26821;DHT22;37186;51.394;5.454;2022-11-15T19:20:54;13.10;84.80
26821;DHT22;37186;51.394;5.454;2022-11-15T19:23:56;13.10;84.80
26821;DHT22;37186;51.394;5.454;2022-11-15T19:26:56;13.00;84.70
26821;DHT22;37186;51.394;5.454;2022-11-15T19:29:57;13.00;84.70
26821;DHT22;37186;51.394;5.454;2022-11-15T19:32:57;13.00;84.80
26821;DHT22;37186;51.394;5.454;2022-11-15T19:36:05;13.10;84.80
26821;DHT22;37186;51.394;5.454;2022-11-15T19:39:11;13.00;84.70
26821;DHT22;37186;51.394;5.454;2022-11-15T19:42:12;13.10;84.90
26821;DHT22;37186;51.394;5.454;2022-11-15T19:45:12;13.10;84.80
26821;DHT22;37186;51.394;5.454;2022-11-15T19:48:13;13.10;84.80
26821;DHT22;37186;51.394;5.454;2022-11-15T19:51:17;13.10;84.90
26821;DHT22;37186;51.394;5.454;2022-11-15T19:54:18;13.10;84.90
26821;DHT22;37186;51.394;5.454;2022-11-15T19:57:19;13.10;84.90
26821;DHT22;37186;51.394;5.454;2022-11-15T20:00:19;13.10;84.90
26821;DHT22;37186;51.394;5.454;2022-11-15T20:03:20;13.10;84.90
26821;DHT22;37186;51.394;5.454;2022-11-15T20:06:26;13.10;84.90
26821;DHT22;37186;51.394;5.454;2022-11-15T20:09:27;13.10;84.90
26821;DHT22;37186;51.394;5.454;2022-11-15T20:12:27;13.10;84.90
26821;DHT22;37186;51.394;5.454;2022-11-15T20:15:28;13.10;84.90
26821;DHT22;37186;51.394;5.454;2022-11-15T20:18:29;13.10;84.90
26821;DHT22;37186;51.394;5.454;2022-11-15T20:21:30;13.10;84.90
26821;DHT22;37186;51.394;5.454;2022-11-15T20:24:30;13.10;84.90
26821;DHT22;37186;51.394;5.454;2022-11-15T20:27:31;13.10;84.90
26821;DHT22;37186;51.394;5.454;2022-11-15T20:30:34;13.20;85.00
26821;DHT22;37186;51.394;5.454;2022-11-15T20:33:35;13.20;85.00
26821;DHT22;37186;51.394;5.454;2022-11-15T20:36:35;13.20;85.00
26821;DHT22;37186;51.394;5.454;2022-11-15T20:39:36;13.20;85.00
26821;DHT22;37186;51.394;5.454;2022-11-15T20:42:36;13.20;85.00
26821;DHT22;37186;51.394;5.454;2022-11-15T20:45:38;13.20;85.00
26821;DHT22;37186;51.394;5.454;2022-11-15T20:48:39;13.20;85.00